Observation data for Seymour on 05/26/2019      Previous  Date  Next       Current Mesonet Observations  Soil Data  Daily Summary Page  Observations in Plain Language
KSE1 260500Z 11009KT 24/20 A2995 RMK A01 T02400202  RH  084%=      5-min Rain = 0
KSE1 260505Z 11009KT 24/20 A2995 RMK A01 T02390202  RH  085%=      5-min Rain = 0
KSE1 260510Z 11010KT 24/20 A2995 RMK A01 T02400202  RH  084%=      5-min Rain = 0
KSE1 260515Z 12010KT 24/20 A2995 RMK A01 T02400202  RH  084%=      5-min Rain = 0
KSE1 260520Z 12010KT 24/20 A2995 RMK A01 T02400201  RH  084%=      5-min Rain = 0
KSE1 260525Z 11010KT 24/20 A2995 RMK A01 T02400201  RH  084%=      5-min Rain = 0
KSE1 260530Z 11010KT 24/20 A2995 RMK A01 T02400201  RH  084%=      5-min Rain = 0
KSE1 260535Z 12011KT 24/20 A2995 RMK A01 T02400201  RH  084%=      5-min Rain = 0
KSE1 260540Z 12010KT 24/20 A2994 RMK A01 T02390201  RH  084%=      5-min Rain = 0
KSE1 260545Z 12010KT 24/20 A2995 RMK A01 T02390201  RH  084%=      5-min Rain = 0
KSE1 260550Z 12010KT 24/20 A2995 RMK A01 T02390201  RH  084%=      5-min Rain = 0
KSE1 260555Z 12009KT 24/20 A2995 RMK A01 T02370201  RH  085%=      5-min Rain = 0
KSE1 260600Z 12010KT 24/20 A2995 RMK A01 T02370201  RH  085%=      5-min Rain = 0
KSE1 260605Z 12010KT 24/20 A2995 RMK A01 T02380201  RH  084%=      5-min Rain = 0
KSE1 260610Z 12009KT 24/20 A2995 RMK A01 T02380201  RH  084%=      5-min Rain = 0
KSE1 260615Z 12010KT 24/20 A2995 RMK A01 T02370200  RH  085%=      5-min Rain = 0
KSE1 260620Z 12010KT 24/20 A2995 RMK A01 T02370200  RH  085%=      5-min Rain = 0
KSE1 260625Z 12010KT 24/20 A2995 RMK A01 T02370200  RH  085%=      5-min Rain = 0
KSE1 260630Z 12008KT 24/20 A2995 RMK A01 T02350200  RH  085%=      5-min Rain = 0
KSE1 260635Z 12009KT 24/20 A2995 RMK A01 T02350200  RH  086%=      5-min Rain = 0
KSE1 260640Z 12008KT 23/20 A2995 RMK A01 T02340199  RH  086%=      5-min Rain = 0
KSE1 260645Z 12009KT 24/20 A2995 RMK A01 T02350199  RH  085%=      5-min Rain = 0
KSE1 260650Z 13010KT 24/20 A2995 RMK A01 T02350199  RH  085%=      5-min Rain = 0
KSE1 260655Z 13010KT 23/20 A2995 RMK A01 T02340199  RH  085%=      5-min Rain = 0
KSE1 260700Z 13010KT 24/20 A2995 RMK A01 T02350199  RH  085%=      5-min Rain = 0
KSE1 260705Z 13010KT 23/20 A2995 RMK A01 T02340198  RH  085%=      5-min Rain = 0
KSE1 260710Z 13010KT 23/20 A2995 RMK A01 T02330198  RH  086%=      5-min Rain = 0
KSE1 260715Z 13010KT 23/20 A2995 RMK A01 T02320198  RH  086%=      5-min Rain = 0
KSE1 260720Z 13010G15KT 23/20 A2995 RMK A01 T02320198  RH  086%=      5-min Rain = 0
KSE1 260725Z 14009KT 23/20 A2995 RMK A01 T02320198  RH  086%=      5-min Rain = 0
KSE1 260730Z 14010KT 23/20 A2995 RMK A01 T02320197  RH  086%=      5-min Rain = 0
KSE1 260735Z 14010KT 23/20 A2995 RMK A01 T02330197  RH  085%=      5-min Rain = 0
KSE1 260740Z 14010G15KT 23/20 A2995 RMK A01 T02320197  RH  085%=      5-min Rain = 0
KSE1 260745Z 14009KT 23/20 A2995 RMK A01 T02320197  RH  085%=      5-min Rain = 0
KSE1 260750Z 14010KT 23/20 A2995 RMK A01 T02320196  RH  085%=      5-min Rain = 0
KSE1 260755Z 14009KT 23/20 A2995 RMK A01 T02320196  RH  085%=      5-min Rain = 0
KSE1 260800Z 14010KT 23/20 A2995 RMK A01 T02310196  RH  085%=      5-min Rain = 0
KSE1 260805Z 14009G14KT 23/20 A2995 RMK A01 T02300196  RH  086%=      5-min Rain = 0
KSE1 260810Z 14011KT 23/20 A2995 RMK A01 T02300195  RH  085%=      5-min Rain = 0
KSE1 260815Z 14010G15KT 23/20 A2995 RMK A01 T02300195  RH  085%=      5-min Rain = 0
KSE1 260820Z 14010KT 23/20 A2995 RMK A01 T02300195  RH  085%=      5-min Rain = 0
KSE1 260825Z 14009KT 23/20 A2995 RMK A01 T02290195  RH  085%=      5-min Rain = 0
KSE1 260830Z 15009KT 23/19 A2995 RMK A01 T02290194  RH  086%=      5-min Rain = 0
KSE1 260835Z 15009KT 23/19 A2995 RMK A01 T02290194  RH  085%=      5-min Rain = 0
KSE1 260840Z 14009KT 23/19 A2995 RMK A01 T02280194  RH  086%=      5-min Rain = 0
KSE1 260845Z 14008KT 23/19 A2995 RMK A01 T02270194  RH  086%=      5-min Rain = 0
KSE1 260850Z 14007KT 23/19 A2995 RMK A01 T02260194  RH  087%=      5-min Rain = 0
KSE1 260855Z 14008KT 23/19 A2995 RMK A01 T02250194  RH  087%=      5-min Rain = 0
KSE1 260900Z 14008KT 22/19 A2995 RMK A01 T02230193  RH  088%=      5-min Rain = 0
KSE1 260905Z 14009KT 22/19 A2994 RMK A01 T02230193  RH  088%=      5-min Rain = 0
KSE1 260910Z 14009KT 22/19 A2994 RMK A01 T02240193  RH  088%=      5-min Rain = 0
KSE1 260915Z 15009KT 22/19 A2994 RMK A01 T02230193  RH  088%=      5-min Rain = 0
KSE1 260920Z 15009KT 22/19 A2995 RMK A01 T02230192  RH  088%=      5-min Rain = 0
KSE1 260925Z 14008KT 22/19 A2995 RMK A01 T02210192  RH  088%=      5-min Rain = 0
KSE1 260930Z 14009KT 22/19 A2995 RMK A01 T02210192  RH  088%=      5-min Rain = 0
KSE1 260935Z 14008KT 22/19 A2995 RMK A01 T02210192  RH  088%=      5-min Rain = 0
KSE1 260940Z 14008KT 22/19 A2995 RMK A01 T02190192  RH  089%=      5-min Rain = 0
KSE1 260945Z 14009KT 22/19 A2995 RMK A01 T02200191  RH  089%=      5-min Rain = 0
KSE1 260950Z 14008KT 22/19 A2995 RMK A01 T02190191  RH  089%=      5-min Rain = 0
KSE1 260955Z 14009KT 22/19 A2995 RMK A01 T02190191  RH  089%=      5-min Rain = 0
KSE1 261000Z 14008KT 22/19 A2995 RMK A01 T02180191  RH  089%=      5-min Rain = 0
KSE1 261005Z 14009KT 22/19 A2995 RMK A01 T02170191  RH  090%=      5-min Rain = 0
KSE1 261010Z 14009KT 22/19 A2995 RMK A01 T02180190  RH  089%=      5-min Rain = 0
KSE1 261015Z 14010KT 22/19 A2995 RMK A01 T02180190  RH  089%=      5-min Rain = 0
KSE1 261020Z 15010KT 22/19 A2995 RMK A01 T02180190  RH  089%=      5-min Rain = 0
KSE1 261025Z 15011KT 22/19 A2995 RMK A01 T02180190  RH  089%=      5-min Rain = 0
KSE1 261030Z 14011G16KT 22/19 A2995 RMK A01 T02170189  RH  089%=      5-min Rain = 0
KSE1 261035Z 15010KT 22/19 A2996 RMK A01 T02170189  RH  089%=      5-min Rain = 0
KSE1 261040Z 14010KT 22/19 A2996 RMK A01 T02170189  RH  089%=      5-min Rain = 0
KSE1 261045Z 15011KT 22/19 A2996 RMK A01 T02160189  RH  089%=      5-min Rain = 0
KSE1 261050Z 15012G18KT 22/19 A2996 RMK A01 T02160189  RH  089%=      5-min Rain = 0
KSE1 261055Z 15011G17KT 22/19 A2996 RMK A01 T02160189  RH  089%=      5-min Rain = 0
KSE1 261100Z 15012KT 22/19 A2996 RMK A01 T02160188  RH  089%=      5-min Rain = 0
KSE1 261105Z 15012KT 22/19 A2996 RMK A01 T02160188  RH  089%=      5-min Rain = 0
KSE1 261110Z 15012KT 22/19 A2996 RMK A01 T02150188  RH  089%=      5-min Rain = 0
KSE1 261115Z 15011G16KT 22/19 A2996 RMK A01 T02150188  RH  089%=      5-min Rain = 0
KSE1 261120Z 15010KT 21/19 A2997 RMK A01 T02140187  RH  089%=      5-min Rain = 0
KSE1 261125Z 15012KT 21/19 A2997 RMK A01 T02140187  RH  089%=      5-min Rain = 0
KSE1 261130Z 15011KT 21/19 A2997 RMK A01 T02140187  RH  089%=      5-min Rain = 0
KSE1 261135Z 15010G15KT 21/19 A2997 RMK A01 T02130187  RH  090%=      5-min Rain = 0
KSE1 261140Z 15011KT 21/19 A2997 RMK A01 T02120187  RH  090%=      5-min Rain = 0
KSE1 261145Z 15011KT 21/19 A2997 RMK A01 T02120187  RH  090%=      5-min Rain = 0
KSE1 261150Z 15011KT 21/19 A2997 RMK A01 T02120187  RH  090%=      5-min Rain = 0
KSE1 261155Z 15010G15KT 21/19 A2998 RMK A01 T02130187  RH  090%=      5-min Rain = 0
KSE1 261200Z 15010G16KT 21/19 A2998 RMK A01 T02120187  RH  090%=      5-min Rain = 0
KSE1 261205Z 15011G17KT 21/19 A2998 RMK A01 T02130187  RH  090%=      5-min Rain = 0
KSE1 261210Z 15011KT 21/19 A2998 RMK A01 T02130186  RH  089%=      5-min Rain = 0
KSE1 261215Z 15010G15KT 21/19 A2998 RMK A01 T02130186  RH  089%=      5-min Rain = 0
KSE1 261220Z 15010G16KT 22/19 A2999 RMK A01 T02150186  RH  089%=      5-min Rain = 0
KSE1 261225Z 15008KT 22/19 A2999 RMK A01 T02150186  RH  088%=      5-min Rain = 0
KSE1 261230Z 15010KT 22/19 A30 RMK A01 T02160186  RH  088%=      5-min Rain = 0
KSE1 261235Z 15010KT 22/19 A30 RMK A01 T02170186  RH  087%=      5-min Rain = 0
KSE1 261240Z 15010KT 22/19 A30 RMK A01 T02180186  RH  087%=      5-min Rain = 0
KSE1 261245Z 16010KT 22/19 A30 RMK A01 T02190187  RH  086%=      5-min Rain = 0
KSE1 261250Z 15011KT 22/19 A30 RMK A01 T02200186  RH  086%=      5-min Rain = 0
KSE1 261255Z 16011KT 22/19 A30 RMK A01 T02210186  RH  085%=      5-min Rain = 0
KSE1 261300Z 16012G17KT 22/19 A30 RMK A01 T02220186  RH  085%=      5-min Rain = 0
KSE1 261305Z 16013KT 22/19 A3001 RMK A01 T02230186  RH  084%=      5-min Rain = 0
KSE1 261310Z 16013G19KT 22/19 A3001 RMK A01 T02230186  RH  084%=      5-min Rain = 0
KSE1 261315Z 15012G20KT 23/19 A3001 RMK A01 T02260187  RH  083%=      5-min Rain = 0
KSE1 261320Z 16012G17KT 23/19 A3002 RMK A01 T02270187  RH  083%=      5-min Rain = 0
KSE1 261325Z 16013G18KT 23/19 A3002 RMK A01 T02280187  RH  082%=      5-min Rain = 0
KSE1 261330Z 15014G20KT 23/19 A3002 RMK A01 T02290187  RH  081%=      5-min Rain = 0
KSE1 261335Z 16013KT 23/19 A3002 RMK A01 T02300188  RH  081%=      5-min Rain = 0
KSE1 261340Z 16013G18KT 23/19 A3002 RMK A01 T02310188  RH  081%=      5-min Rain = 0
KSE1 261345Z 16016G21KT 23/19 A3002 RMK A01 T02290186  RH  081%=      5-min Rain = 0
KSE1 261350Z 17013G18KT 23/19 A3002 RMK A01 T02280186  RH  082%=      5-min Rain = 0
KSE1 261355Z 16015G20KT 23/19 A3002 RMK A01 T02320187  RH  080%=      5-min Rain = 0
KSE1 261400Z 16016G23KT 23/19 A3002 RMK A01 T02310185  RH  080%=      5-min Rain = 0
KSE1 261405Z 17014G21KT 23/19 A3002 RMK A01 T02330187  RH  079%=      5-min Rain = 0
KSE1 261410Z 17013G18KT 23/19 A3003 RMK A01 T02340187  RH  079%=      5-min Rain = 0
KSE1 261415Z 17012G18KT 24/19 A3003 RMK A01 T02390189  RH  078%=      5-min Rain = 0
KSE1 261420Z 16013G18KT 24/19 A3003 RMK A01 T02410189  RH  077%=      5-min Rain = 0
KSE1 261425Z 17015G21KT 24/19 A3002 RMK A01 T02400187  RH  077%=      5-min Rain = 0
KSE1 261430Z 17014G22KT 24/19 A3002 RMK A01 T02410188  RH  076%=      5-min Rain = 0
KSE1 261435Z 17015G22KT 24/19 A3002 RMK A01 T02430187  RH  075%=      5-min Rain = 0
KSE1 261440Z 17015KT 25/19 A3002 RMK A01 T02450188  RH  075%=      5-min Rain = 0
KSE1 261445Z 18018G23KT 24/19 A3002 RMK A01 T02440186  RH  074%=      5-min Rain = 0
KSE1 261450Z 17020G26KT 24/18 A3002 RMK A01 T02440184  RH  073%=      5-min Rain = 0
KSE1 261455Z 18019G24KT 25/18 A3003 RMK A01 T02450184  RH  073%=      5-min Rain = 0
KSE1 261500Z 18017G24KT 25/19 A3002 RMK A01 T02460185  RH  073%=      5-min Rain = 0
KSE1 261505Z 18016G25KT 25/19 A3002 RMK A01 T02480186  RH  072%=      5-min Rain = 0
KSE1 261510Z 17018G25KT 25/18 A3002 RMK A01 T02480184  RH  071%=      5-min Rain = 0
KSE1 261515Z 18018G26KT 25/18 A3002 RMK A01 T02480184  RH  071%=      5-min Rain = 0
KSE1 261520Z 17019G25KT 25/18 A3002 RMK A01 T02500184  RH  070%=      5-min Rain = 0
KSE1 261525Z 18016G22KT 25/19 A3002 RMK A01 T02500185  RH  071%=      5-min Rain = 0
KSE1 261530Z 19017G26KT 25/18 A3002 RMK A01 T02510184  RH  070%=      5-min Rain = 0
KSE1 261535Z 18016G21KT 25/19 A3002 RMK A01 T02520187  RH  071%=      5-min Rain = 0
KSE1 261540Z 18017G23KT 25/19 A3002 RMK A01 T02540187  RH  070%=      5-min Rain = 0
KSE1 261545Z 17017G24KT 26/19 A3002 RMK A01 T02570187  RH  069%=      5-min Rain = 0
KSE1 261550Z 17018G24KT 26/19 A3001 RMK A01 T02580187  RH  068%=      5-min Rain = 0
KSE1 261555Z 17018G23KT 26/19 A3001 RMK A01 T02600185  RH  067%=      5-min Rain = 0
KSE1 261600Z 18015G23KT 26/19 A3002 RMK A01 T02570185  RH  068%=      5-min Rain = 0
KSE1 261605Z 18018G25KT 26/19 A3002 RMK A01 T02600186  RH  067%=      5-min Rain = 0
KSE1 261610Z 18018G24KT 26/19 A3002 RMK A01 T02620186  RH  067%=      5-min Rain = 0
KSE1 261615Z 18018G23KT 26/19 A3001 RMK A01 T02630185  RH  066%=      5-min Rain = 0
KSE1 261620Z 18016KT 27/19 A3001 RMK A01 T02650188  RH  066%=      5-min Rain = 0
KSE1 261625Z 18017G24KT 27/19 A3001 RMK A01 T02650186  RH  065%=      5-min Rain = 0
KSE1 261630Z 17015G20KT 27/19 A3001 RMK A01 T02680189  RH  065%=      5-min Rain = 0
KSE1 261635Z 17017KT 27/19 A3001 RMK A01 T02700189  RH  065%=      5-min Rain = 0
KSE1 261640Z 17017G23KT 27/19 A3001 RMK A01 T02670188  RH  065%=      5-min Rain = 0
KSE1 261645Z 17017G23KT 27/19 A3001 RMK A01 T02670187  RH  065%=      5-min Rain = 0
KSE1 261650Z 17020G27KT 27/19 A3001 RMK A01 T02660185  RH  064%=      5-min Rain = 0
KSE1 261655Z 17020G25KT 27/19 A3001 RMK A01 T02680186  RH  064%=      5-min Rain = 0
KSE1 261700Z 17017G24KT 27/19 A30 RMK A01 T02730190  RH  064%=      5-min Rain = 0
KSE1 261705Z 17017G23KT 27/19 A30 RMK A01 T02730190  RH  064%=      5-min Rain = 0
KSE1 261710Z 17018G26KT 28/19 A30 RMK A01 T02750192  RH  064%=      5-min Rain = 0
KSE1 261715Z 17019G25KT 28/19 A30 RMK A01 T02770190  RH  062%=      5-min Rain = 0
KSE1 261720Z 17015G20KT 28/19 A2999 RMK A01 T02770192  RH  064%=      5-min Rain = 0
KSE1 261725Z 17018G24KT 28/19 A2999 RMK A01 T02800190  RH  062%=      5-min Rain = 0
KSE1 261730Z 17015G21KT 28/19 A30 RMK A01 T02750191  RH  063%=      5-min Rain = 0
KSE1 261735Z 16014G19KT 28/19 A30 RMK A01 T02750191  RH  064%=      5-min Rain = 0
KSE1 261740Z 16015G23KT 28/19 A30 RMK A01 T02760191  RH  063%=      5-min Rain = 0
KSE1 261745Z 16014KT 28/19 A30 RMK A01 T02750189  RH  063%=      5-min Rain = 0
KSE1 261750Z 16018G26KT 27/19 A30 RMK A01 T02730186  RH  062%=      5-min Rain = 0
KSE1 261755Z 17015G20KT 28/19 A30 RMK A01 T02770189  RH  062%=      5-min Rain = 0
KSE1 261800Z 17017G24KT 28/19 A30 RMK A01 T02780189  RH  062%=      5-min Rain = 0
KSE1 261805Z 16018G25KT 28/19 A30 RMK A01 T02810188  RH  060%=      5-min Rain = 0
KSE1 261810Z 15015G21KT 28/19 A2999 RMK A01 T02790188  RH  061%=      5-min Rain = 0
KSE1 261815Z 16015G21KT 28/19 A2999 RMK A01 T02820191  RH  061%=      5-min Rain = 0
KSE1 261820Z 16016G22KT 28/19 A2999 RMK A01 T02830189  RH  060%=      5-min Rain = 0
KSE1 261825Z 16016G21KT 28/19 A30 RMK A01 T02830188  RH  060%=      5-min Rain = 0
KSE1 261830Z 15015G22KT 28/19 A2999 RMK A01 T02840187  RH  059%=      5-min Rain = 0
KSE1 261835Z 16014G21KT 29/19 A2999 RMK A01 T02850189  RH  059%=      5-min Rain = 0
KSE1 261840Z 15017G24KT 29/19 A2999 RMK A01 T02890190  RH  059%=      5-min Rain = 0
KSE1 261845Z 16015KT 29/19 A2999 RMK A01 T02880189  RH  058%=      5-min Rain = 0
KSE1 261850Z 15015G23KT 29/19 A2999 RMK A01 T02860189  RH  059%=      5-min Rain = 0
KSE1 261855Z 16017G23KT 29/19 A2998 RMK A01 T02900189  RH  058%=      5-min Rain = 0
KSE1 261900Z 15016G24KT 29/19 A2998 RMK A01 T02890189  RH  058%=      5-min Rain = 0
KSE1 261905Z 16016G22KT 29/19 A2998 RMK A01 T02900190  RH  058%=      5-min Rain = 0
KSE1 261910Z 15017G25KT 29/19 A2998 RMK A01 T02880187  RH  057%=      5-min Rain = 0
KSE1 261915Z 15015G21KT 29/19 A2998 RMK A01 T02890188  RH  058%=      5-min Rain = 0
KSE1 261920Z 16016G22KT 29/19 A2997 RMK A01 T02910190  RH  058%=      5-min Rain = 0
KSE1 261925Z 16015G21KT 29/19 A2997 RMK A01 T02920189  RH  057%=      5-min Rain = 0
KSE1 261930Z 16017G22KT 29/19 A2997 RMK A01 T02880187  RH  057%=      5-min Rain = 0
KSE1 261935Z 16018G23KT 29/19 A2997 RMK A01 T02890188  RH  058%=      5-min Rain = 0
KSE1 261940Z 16015G23KT 29/19 A2997 RMK A01 T02920191  RH  058%=      5-min Rain = 0
KSE1 261945Z 15017G22KT 29/19 A2997 RMK A01 T02930189  RH  057%=      5-min Rain = 0
KSE1 261950Z 16016G22KT 29/19 A2997 RMK A01 T02910190  RH  058%=      5-min Rain = 0
KSE1 261955Z 16015G21KT 30/19 A2997 RMK A01 T02950193  RH  058%=      5-min Rain = 0
KSE1 262000Z 15017G23KT 30/19 A2997 RMK A01 T02990193  RH  056%=      5-min Rain = 0
KSE1 262005Z 16018G23KT 30/19 A2996 RMK A01 T02960192  RH  057%=      5-min Rain = 0
KSE1 262010Z 16018G23KT 30/19 A2996 RMK A01 T02950192  RH  057%=      5-min Rain = 0
KSE1 262015Z 16015G21KT 30/19 A2996 RMK A01 T02950193  RH  057%=      5-min Rain = 0
KSE1 262020Z 16017G23KT 29/19 A2997 RMK A01 T02900189  RH  058%=      5-min Rain = 0
KSE1 262025Z 16018G23KT 29/19 A2996 RMK A01 T02930190  RH  057%=      5-min Rain = 0
KSE1 262030Z 16017G23KT 29/19 A2996 RMK A01 T02910188  RH  057%=      5-min Rain = 0
KSE1 262035Z 16016G22KT 29/19 A2996 RMK A01 T02890189  RH  058%=      5-min Rain = 0
KSE1 262040Z 16016G22KT 29/19 A2996 RMK A01 T02880189  RH  058%=      5-min Rain = 0
KSE1 262045Z 15016G22KT 29/19 A2996 RMK A01 T02860190  RH  059%=      5-min Rain = 0
KSE1 262050Z 16015G20KT 29/19 A2996 RMK A01 T02860190  RH  059%=      5-min Rain = 0
KSE1 262055Z 15012KT 29/19 A2996 RMK A01 T02880194  RH  060%=      5-min Rain = 0
KSE1 262100Z 15015G20KT 29/19 A2996 RMK A01 T02890192  RH  059%=      5-min Rain = 0
KSE1 262105Z 16014G19KT 29/19 A2996 RMK A01 T02880192  RH  059%=      5-min Rain = 0
KSE1 262110Z 16015KT 29/19 A2996 RMK A01 T02880192  RH  059%=      5-min Rain = 0
KSE1 262115Z 16014G19KT 29/19 A2995 RMK A01 T02860191  RH  060%=      5-min Rain = 0
KSE1 262120Z 16013G18KT 29/19 A2995 RMK A01 T02850192  RH  060%=      5-min Rain = 0
KSE1 262125Z 15016G22KT 29/19 A2995 RMK A01 T02850190  RH  059%=      5-min Rain = 0
KSE1 262130Z 16014G19KT 29/19 A2995 RMK A01 T02850190  RH  060%=      5-min Rain = 0
KSE1 262135Z 16015KT 28/19 A2995 RMK A01 T02840190  RH  060%=      5-min Rain = 0
KSE1 262140Z 16014G19KT 28/19 A2995 RMK A01 T02840189  RH  059%=      5-min Rain = 0
KSE1 262145Z 16014G19KT 28/19 A2995 RMK A01 T02840188  RH  059%=      5-min Rain = 0
KSE1 262150Z 16014G20KT 29/19 A2994 RMK A01 T02860190  RH  059%=      5-min Rain = 0
KSE1 262155Z 16012G18KT 29/19 A2994 RMK A01 T02880192  RH  059%=      5-min Rain = 0
KSE1 262200Z 15012G17KT 29/19 A2993 RMK A01 T02900194  RH  059%=      5-min Rain = 0
KSE1 262205Z 15015G21KT 29/19 A2993 RMK A01 T02920193  RH  059%=      5-min Rain = 0
KSE1 262210Z 16015G20KT 29/19 A2993 RMK A01 T02920191  RH  057%=      5-min Rain = 0
KSE1 262215Z 16014G19KT 29/19 A2992 RMK A01 T02880189  RH  058%=      5-min Rain = 0
KSE1 262220Z 15013G19KT 29/19 A2992 RMK A01 T02870190  RH  059%=      5-min Rain = 0
KSE1 262225Z 15016G22KT 29/19 A2992 RMK A01 T02880189  RH  058%=      5-min Rain = 0
KSE1 262230Z 16015G20KT 29/19 A2991 RMK A01 T02880189  RH  058%=      5-min Rain = 0
KSE1 262235Z 15014KT 29/19 A2991 RMK A01 T02870189  RH  058%=      5-min Rain = 0
KSE1 262240Z 15014G19KT 29/19 A2991 RMK A01 T02860188  RH  059%=      5-min Rain = 0
KSE1 262245Z 15014KT 29/19 A2991 RMK A01 T02860189  RH  059%=      5-min Rain = 0
KSE1 262250Z 15013KT 29/19 A2991 RMK A01 T02870189  RH  059%=      5-min Rain = 0
KSE1 262255Z 16014G20KT 29/19 A2991 RMK A01 T02880187  RH  058%=      5-min Rain = 0
KSE1 262300Z 16015G21KT 29/19 A2991 RMK A01 T02870185  RH  057%=      5-min Rain = 0
KSE1 262305Z 16013G18KT 29/19 A2991 RMK A01 T02860186  RH  058%=      5-min Rain = 0
KSE1 262310Z 16012G17KT 29/19 A2991 RMK A01 T02850186  RH  058%=      5-min Rain = 0
KSE1 262315Z 16011G16KT 28/19 A2991 RMK A01 T02830187  RH  059%=      5-min Rain = 0
KSE1 262320Z 15010G16KT 28/19 A2992 RMK A01 T02820188  RH  060%=      5-min Rain = 0
KSE1 262325Z 16011G16KT 28/19 A2991 RMK A01 T02810188  RH  060%=      5-min Rain = 0
KSE1 262330Z 16010KT 28/19 A2991 RMK A01 T02810189  RH  061%=      5-min Rain = 0
KSE1 262335Z 15010KT 28/19 A2991 RMK A01 T02810190  RH  061%=      5-min Rain = 0
KSE1 262340Z 16011KT 28/19 A2991 RMK A01 T02810189  RH  061%=      5-min Rain = 0
KSE1 262345Z 15012G18KT 28/19 A2991 RMK A01 T02810188  RH  060%=      5-min Rain = 0
KSE1 262350Z 15010KT 28/19 A2991 RMK A01 T02810188  RH  060%=      5-min Rain = 0
KSE1 262355Z 15010G16KT 28/19 A299 RMK A01 T02790189  RH  061%=      5-min Rain = 0
KSE1 270000Z 15009G14KT 28/19 A299 RMK A01 T02790189  RH  061%=      5-min Rain = 0
KSE1 270005Z 15010KT 28/19 A299 RMK A01 T02780189  RH  062%=      5-min Rain = 0
KSE1 270010Z 15009KT 28/19 A299 RMK A01 T02770189  RH  062%=      5-min Rain = 0
KSE1 270015Z 15009KT 28/19 A299 RMK A01 T02770189  RH  062%=      5-min Rain = 0
KSE1 270020Z 14009KT 28/19 A299 RMK A01 T02750190  RH  063%=      5-min Rain = 0
KSE1 270025Z 14010KT 27/19 A2989 RMK A01 T02730192  RH  065%=      5-min Rain = 0
KSE1 270030Z 14009KT 27/19 A2989 RMK A01 T02710192  RH  065%=      5-min Rain = 0
KSE1 270035Z 14010KT 27/19 A2989 RMK A01 T02700191  RH  066%=      5-min Rain = 0
KSE1 270040Z 14010G15KT 27/19 A2988 RMK A01 T02710190  RH  065%=      5-min Rain = 0
KSE1 270045Z 14010KT 27/19 A2988 RMK A01 T02690191  RH  066%=      5-min Rain = 0
KSE1 270050Z 14011KT 27/19 A2987 RMK A01 T02680190  RH  066%=      5-min Rain = 0
KSE1 270055Z 13011KT 27/19 A2987 RMK A01 T02670190  RH  066%=      5-min Rain = 0
KSE1 270100Z 13012KT 27/19 A2986 RMK A01 T02650189  RH  067%=      5-min Rain = 0
KSE1 270105Z 13012KT 27/19 A2986 RMK A01 T02660189  RH  067%=      5-min Rain = 0
KSE1 270110Z 13012KT 27/19 A2986 RMK A01 T02660189  RH  066%=      5-min Rain = 0
KSE1 270115Z 14011KT 27/19 A2987 RMK A01 T02660187  RH  065%=      5-min Rain = 0
KSE1 270120Z 15012KT 27/19 A2987 RMK A01 T02680185  RH  064%=      5-min Rain = 0
KSE1 270125Z 15012KT 27/18 A2987 RMK A01 T02700183  RH  062%=      5-min Rain = 0
KSE1 270130Z 15012KT 27/18 A2987 RMK A01 T02690183  RH  063%=      5-min Rain = 0
KSE1 270135Z 15011KT 27/18 A2987 RMK A01 T02670183  RH  063%=      5-min Rain = 0
KSE1 270140Z 14010KT 26/18 A2987 RMK A01 T02640184  RH  064%=      5-min Rain = 0
KSE1 270145Z 14010KT 26/18 A2987 RMK A01 T02620184  RH  065%=      5-min Rain = 0
KSE1 270150Z 14010KT 26/18 A2986 RMK A01 T02610184  RH  066%=      5-min Rain = 0
KSE1 270155Z 13011KT 26/18 A2986 RMK A01 T02600183  RH  066%=      5-min Rain = 0
KSE1 270200Z 13011KT 26/19 A2986 RMK A01 T02580185  RH  068%=      5-min Rain = 0
KSE1 270205Z 13011KT 26/19 A2985 RMK A01 T02560187  RH  069%=      5-min Rain = 0
KSE1 270210Z 13012KT 26/19 A2985 RMK A01 T02550188  RH  070%=      5-min Rain = 0
KSE1 270215Z 13013KT 26/19 A2985 RMK A01 T02560189  RH  070%=      5-min Rain = 0
KSE1 270220Z 13012KT 26/19 A2985 RMK A01 T02560189  RH  070%=      5-min Rain = 0
KSE1 270225Z 13012KT 26/19 A2985 RMK A01 T02570189  RH  070%=      5-min Rain = 0
KSE1 270230Z 13013KT 26/19 A2985 RMK A01 T02570188  RH  069%=      5-min Rain = 0
KSE1 270235Z 13012KT 26/19 A2985 RMK A01 T02560188  RH  070%=      5-min Rain = 0
KSE1 270240Z 13013KT 26/19 A2984 RMK A01 T02550188  RH  071%=      5-min Rain = 0
KSE1 270245Z 12014KT 25/19 A2983 RMK A01 T02540189  RH  071%=      5-min Rain = 0
KSE1 270250Z 13015KT 25/19 A2983 RMK A01 T02530188  RH  071%=      5-min Rain = 0
KSE1 270255Z 13014KT 25/19 A2983 RMK A01 T02520189  RH  072%=      5-min Rain = 0
KSE1 270300Z 13015G22KT 25/19 A2983 RMK A01 T02520188  RH  072%=      5-min Rain = 0
KSE1 270305Z 13017G22KT 25/19 A2983 RMK A01 T02520188  RH  071%=      5-min Rain = 0
KSE1 270310Z 13018G23KT 25/19 A2982 RMK A01 T02530187  RH  071%=      5-min Rain = 0
KSE1 270315Z 13015G22KT 25/19 A2983 RMK A01 T02520187  RH  071%=      5-min Rain = 0
KSE1 270320Z 13016G21KT 25/19 A2983 RMK A01 T02530186  RH  070%=      5-min Rain = 0
KSE1 270325Z 14013G18KT 25/19 A2984 RMK A01 T02520186  RH  071%=      5-min Rain = 0
KSE1 270330Z 14013KT 25/19 A2985 RMK A01 T02520185  RH  070%=      5-min Rain = 0
KSE1 270335Z 14012KT 25/19 A2986 RMK A01 T02510185  RH  070%=      5-min Rain = 0
KSE1 270340Z 14013G19KT 25/19 A2986 RMK A01 T02500185  RH  071%=      5-min Rain = 0
KSE1 270345Z 15013G19KT 25/18 A2986 RMK A01 T02510184  RH  070%=      5-min Rain = 0
KSE1 270350Z 14014G19KT 25/18 A2986 RMK A01 T02520184  RH  070%=      5-min Rain = 0
KSE1 270355Z 14015KT 25/18 A2986 RMK A01 T02510183  RH  069%=      5-min Rain = 0
KSE1 270400Z 14015G21KT 25/18 A2986 RMK A01 T02510183  RH  070%=      5-min Rain = 0
KSE1 270405Z 14014G19KT 25/18 A2986 RMK A01 T02500183  RH  070%=      5-min Rain = 0
KSE1 270410Z 14014KT 25/18 A2987 RMK A01 T02500183  RH  070%=      5-min Rain = 0
KSE1 270415Z 14014KT 25/18 A2987 RMK A01 T02500182  RH  070%=      5-min Rain = 0
KSE1 270420Z 14012G17KT 25/18 A2987 RMK A01 T02490183  RH  070%=      5-min Rain = 0
KSE1 270425Z 14014KT 25/18 A2987 RMK A01 T02480182  RH  070%=      5-min Rain = 0
KSE1 270430Z 14013G18KT 25/18 A2987 RMK A01 T02480182  RH  071%=      5-min Rain = 0
KSE1 270435Z 14013KT 25/18 A2986 RMK A01 T02470182  RH  071%=      5-min Rain = 0
KSE1 270440Z 14012G17KT 25/18 A2986 RMK A01 T02460182  RH  071%=      5-min Rain = 0
KSE1 270445Z 14011KT 25/18 A2987 RMK A01 T02460182  RH  071%=      5-min Rain = 0
KSE1 270450Z 14011KT 25/18 A2987 RMK A01 T02450182  RH  072%=      5-min Rain = 0
KSE1 270455Z 13012G17KT 24/18 A2986 RMK A01 T02430182  RH  072%=      5-min Rain = 0

Page generated in 0.0091 seconds.